This is the latest recevied weather packets stored in our database for station/object K7CTM. If no packets are shown the sender has not sent any weather packets the latest 1 day(s).
| Time | Temp. | Humidity | Pressure | Rain* | Wind** | Luminosity | Snow |
|---|---|---|---|---|---|---|---|
| 1778029080 | 7.22° C | 36% | 1026.9 hPa | 0 mm | - | 84 W/m² | - |
| 1778028777 | 7.22° C | 36% | 1026.8 hPa | 0 mm | - | 80 W/m² | - |
| 1778028473 | 7.22° C | 36% | 1026.9 hPa | 0 mm | - | 82 W/m² | - |
| 1778027867 | 7.78° C | 35% | 1026.6 hPa | 0 mm | - | 97 W/m² | - |
| 1778027260 | 7.78° C | 35% | 1026.6 hPa | 0 mm | - | 108 W/m² | - |
| 1778025139 | 8.89° C | 33% | 1026.2 hPa | 0 mm | - | 190 W/m² | - |
| 1778024533 | 8.33° C | 34% | 1026 hPa | 0 mm | - | 131 W/m² | - |
| 1778023624 | 8.33° C | 34% | 1026 hPa | 0 mm | - | 133 W/m² | - |
| 1778023018 | 9.44° C | 32% | 1026 hPa | 0 mm | - | 165 W/m² | - |
| 1778022415 | 8.89° C | 33% | 1025.8 hPa | 0 mm | - | 352 W/m² | - |
| 1778017566 | 7.78° C | 34% | 1026 hPa | 0 mm | - | 145 W/m² | - |
| 1778016352 | 8.33° C | 35% | 1026 hPa | 0 mm | - | 144 W/m² | - |
| 1778016050 | 8.33° C | 35% | 1026.2 hPa | 0 mm | - | 173 W/m² | - |
| 1778015747 | 8.33° C | 34% | 1025.8 hPa | 0 mm | - | 244 W/m² | - |
| 1778014838 | 7.78° C | 36% | 1026.1 hPa | 0 mm | - | 247 W/m² | - |
| 1778014535 | 7.78° C | 35% | 1026.2 hPa | 0 mm | - | 151 W/m² | - |
| 1778014232 | 7.78° C | 35% | 1026 hPa | 0 mm | - | 133 W/m² | - |
| 1778013323 | 7.78° C | 36% | 1026.1 hPa | 0 mm | - | 179 W/m² | - |
| 1778011200 | 7.22° C | 38% | 1026.6 hPa | 0 mm | - | 178 W/m² | - |
| 1778010595 | 7.78° C | 37% | 1026.4 hPa | 0 mm | - | 163 W/m² | - |
| 1778009690 | 7.78° C | 39% | 1026.4 hPa | 0 mm | - | 205 W/m² | - |
| 1778009086 | 7.78° C | 39% | 1026.3 hPa | 0 mm | - | 297 W/m² | - |
| 1778007873 | 9.44° C | 36% | 1026.3 hPa | 0 mm | - | 330 W/m² | - |
* Rain latest hour (hover to see other rain measurements)
** Current wind speed in m/s (hover to see current wind gust speed)